sensor_id;sensor_type;location;lat;lon;timestamp;P1;durP1;ratioP1;P2;durP2;ratioP2
2406;SDS011;37709;53.480;9.688;2022-10-17T00:00:57;9.60;;;5.33;;
2406;SDS011;37709;53.480;9.688;2022-10-17T00:03:25;6.50;;;5.20;;
2406;SDS011;37709;53.480;9.688;2022-10-17T00:05:52;11.37;;;5.47;;
2406;SDS011;37709;53.480;9.688;2022-10-17T00:08:19;8.90;;;5.07;;
2406;SDS011;37709;53.480;9.688;2022-10-17T00:10:57;7.10;;;5.50;;
2406;SDS011;37709;53.480;9.688;2022-10-17T00:13:27;8.67;;;5.80;;
2406;SDS011;37709;53.480;9.688;2022-10-17T00:15:54;6.73;;;5.50;;
2406;SDS011;37709;53.480;9.688;2022-10-17T00:18:22;6.00;;;5.40;;
2406;SDS011;37709;53.480;9.688;2022-10-17T00:20:49;9.53;;;4.80;;
2406;SDS011;37709;53.480;9.688;2022-10-17T00:23:18;9.33;;;4.73;;
2406;SDS011;37709;53.480;9.688;2022-10-17T00:25:46;6.13;;;5.00;;
2406;SDS011;37709;53.480;9.688;2022-10-17T00:28:23;7.03;;;5.07;;
2406;SDS011;37709;53.480;9.688;2022-10-17T00:30:58;9.67;;;5.47;;
2406;SDS011;37709;53.480;9.688;2022-10-17T00:33:27;8.00;;;5.03;;
2406;SDS011;37709;53.480;9.688;2022-10-17T00:36:29;7.57;;;4.20;;
2406;SDS011;37709;53.480;9.688;2022-10-17T00:38:52;7.40;;;4.40;;
2406;SDS011;37709;53.480;9.688;2022-10-17T00:41:26;5.60;;;4.30;;
2406;SDS011;37709;53.480;9.688;2022-10-17T00:43:57;7.70;;;4.97;;
2406;SDS011;37709;53.480;9.688;2022-10-17T00:46:47;8.40;;;4.97;;
2406;SDS011;37709;53.480;9.688;2022-10-17T00:49:14;7.60;;;4.43;;
2406;SDS011;37709;53.480;9.688;2022-10-17T00:51:43;5.97;;;5.03;;
2406;SDS011;37709;53.480;9.688;2022-10-17T00:54:12;11.13;;;5.20;;
2406;SDS011;37709;53.480;9.688;2022-10-17T00:56:41;6.17;;;5.07;;
2406;SDS011;37709;53.480;9.688;2022-10-17T00:59:10;11.37;;;5.63;;
2406;SDS011;37709;53.480;9.688;2022-10-17T01:01:40;7.57;;;5.17;;
2406;SDS011;37709;53.480;9.688;2022-10-17T01:04:13;7.07;;;4.30;;
2406;SDS011;37709;53.480;9.688;2022-10-17T01:06:41;8.53;;;5.13;;
2406;SDS011;37709;53.480;9.688;2022-10-17T01:09:09;7.67;;;5.10;;
2406;SDS011;37709;53.480;9.688;2022-10-17T01:11:46;7.33;;;5.07;;
2406;SDS011;37709;53.480;9.688;2022-10-17T01:14:22;7.50;;;5.47;;
2406;SDS011;37709;53.480;9.688;2022-10-17T01:17:51;5.93;;;4.80;;
2406;SDS011;37709;53.480;9.688;2022-10-17T01:20:17;9.83;;;5.40;;
2406;SDS011;37709;53.480;9.688;2022-10-17T01:31:15;8.37;;;5.43;;
2406;SDS011;37709;53.480;9.688;2022-10-17T01:34:06;7.73;;;5.10;;
2406;SDS011;37709;53.480;9.688;2022-10-17T01:36:48;10.13;;;6.70;;
2406;SDS011;37709;53.480;9.688;2022-10-17T01:39:38;5.93;;;5.03;;
2406;SDS011;37709;53.480;9.688;2022-10-17T01:47:19;6.77;;;5.60;;
2406;SDS011;37709;53.480;9.688;2022-10-17T01:49:52;6.70;;;5.97;;
2406;SDS011;37709;53.480;9.688;2022-10-17T01:52:25;6.37;;;5.30;;
2406;SDS011;37709;53.480;9.688;2022-10-17T01:55:02;11.37;;;5.47;;
2406;SDS011;37709;53.480;9.688;2022-10-17T01:57:37;8.10;;;5.73;;
2406;SDS011;37709;53.480;9.688;2022-10-17T02:00:14;8.33;;;5.33;;
2406;SDS011;37709;53.480;9.688;2022-10-17T02:02:51;8.27;;;5.70;;
2406;SDS011;37709;53.480;9.688;2022-10-17T02:05:25;6.80;;;5.87;;
2406;SDS011;37709;53.480;9.688;2022-10-17T02:07:57;8.23;;;6.17;;
2406;SDS011;37709;53.480;9.688;2022-10-17T02:10:29;14.30;;;6.40;;
2406;SDS011;37709;53.480;9.688;2022-10-17T02:13:08;7.47;;;5.33;;
2406;SDS011;37709;53.480;9.688;2022-10-17T02:18:36;10.00;;;5.80;;
2406;SDS011;37709;53.480;9.688;2022-10-17T02:21:30;7.43;;;5.03;;
2406;SDS011;37709;53.480;9.688;2022-10-17T02:29:23;6.90;;;5.70;;
2406;SDS011;37709;53.480;9.688;2022-10-17T02:31:57;7.47;;;5.67;;
2406;SDS011;37709;53.480;9.688;2022-10-17T02:34:39;6.03;;;5.43;;
2406;SDS011;37709;53.480;9.688;2022-10-17T02:37:22;8.20;;;5.50;;
2406;SDS011;37709;53.480;9.688;2022-10-17T02:39:53;6.00;;;5.50;;
2406;SDS011;37709;53.480;9.688;2022-10-17T02:42:23;5.70;;;5.20;;
2406;SDS011;37709;53.480;9.688;2022-10-17T02:44:53;6.00;;;5.23;;
2406;SDS011;37709;53.480;9.688;2022-10-17T02:47:26;5.90;;;5.40;;
2406;SDS011;37709;53.480;9.688;2022-10-17T02:50:01;6.50;;;5.10;;
2406;SDS011;37709;53.480;9.688;2022-10-17T02:52:36;11.80;;;5.73;;
2406;SDS011;37709;53.480;9.688;2022-10-17T02:55:13;6.03;;;5.53;;
2406;SDS011;37709;53.480;9.688;2022-10-17T02:57:55;6.03;;;5.33;;
2406;SDS011;37709;53.480;9.688;2022-10-17T03:00:26;5.47;;;4.97;;
2406;SDS011;37709;53.480;9.688;2022-10-17T03:02:56;6.00;;;5.30;;
2406;SDS011;37709;53.480;9.688;2022-10-17T03:05:25;8.07;;;5.77;;
2406;SDS011;37709;53.480;9.688;2022-10-17T03:07:55;6.63;;;5.00;;
2406;SDS011;37709;53.480;9.688;2022-10-17T03:10:24;5.80;;;5.30;;
2406;SDS011;37709;53.480;9.688;2022-10-17T03:12:51;5.47;;;5.07;;
2406;SDS011;37709;53.480;9.688;2022-10-17T03:15:19;6.63;;;5.10;;
2406;SDS011;37709;53.480;9.688;2022-10-17T03:17:46;8.00;;;5.70;;
2406;SDS011;37709;53.480;9.688;2022-10-17T03:20:14;6.73;;;5.53;;
2406;SDS011;37709;53.480;9.688;2022-10-17T03:22:41;6.73;;;5.00;;
2406;SDS011;37709;53.480;9.688;2022-10-17T03:25:09;5.50;;;4.90;;
2406;SDS011;37709;53.480;9.688;2022-10-17T03:27:36;6.53;;;5.30;;
2406;SDS011;37709;53.480;9.688;2022-10-17T03:30:05;10.67;;;5.33;;
2406;SDS011;37709;53.480;9.688;2022-10-17T03:32:34;5.23;;;4.73;;
2406;SDS011;37709;53.480;9.688;2022-10-17T03:35:02;5.60;;;5.00;;
2406;SDS011;37709;53.480;9.688;2022-10-17T03:37:30;5.43;;;5.03;;
2406;SDS011;37709;53.480;9.688;2022-10-17T03:39:58;8.73;;;5.03;;
2406;SDS011;37709;53.480;9.688;2022-10-17T03:42:26;5.40;;;4.97;;
2406;SDS011;37709;53.480;9.688;2022-10-17T03:44:53;6.37;;;5.77;;
2406;SDS011;37709;53.480;9.688;2022-10-17T03:47:22;5.93;;;5.43;;
2406;SDS011;37709;53.480;9.688;2022-10-17T03:49:50;8.97;;;5.87;;
2406;SDS011;37709;53.480;9.688;2022-10-17T03:52:20;8.10;;;5.10;;
2406;SDS011;37709;53.480;9.688;2022-10-17T03:54:48;5.80;;;5.23;;
2406;SDS011;37709;53.480;9.688;2022-10-17T03:57:17;5.90;;;5.40;;
2406;SDS011;37709;53.480;9.688;2022-10-17T03:59:46;6.00;;;5.50;;
2406;SDS011;37709;53.480;9.688;2022-10-17T04:02:17;5.53;;;5.10;;
2406;SDS011;37709;53.480;9.688;2022-10-17T04:04:45;5.93;;;5.40;;
2406;SDS011;37709;53.480;9.688;2022-10-17T04:07:12;6.20;;;5.70;;
2406;SDS011;37709;53.480;9.688;2022-10-17T04:09:43;6.83;;;5.90;;
2406;SDS011;37709;53.480;9.688;2022-10-17T04:12:15;5.83;;;5.30;;
2406;SDS011;37709;53.480;9.688;2022-10-17T04:14:43;5.70;;;5.20;;
2406;SDS011;37709;53.480;9.688;2022-10-17T04:17:14;7.10;;;6.50;;
2406;SDS011;37709;53.480;9.688;2022-10-17T04:19:41;6.23;;;5.47;;
2406;SDS011;37709;53.480;9.688;2022-10-17T04:22:08;5.97;;;5.37;;
2406;SDS011;37709;53.480;9.688;2022-10-17T04:24:38;6.20;;;5.57;;
2406;SDS011;37709;53.480;9.688;2022-10-17T04:27:12;6.40;;;5.90;;
2406;SDS011;37709;53.480;9.688;2022-10-17T04:29:43;6.30;;;5.43;;
2406;SDS011;37709;53.480;9.688;2022-10-17T04:32:16;6.20;;;5.70;;
2406;SDS011;37709;53.480;9.688;2022-10-17T04:34:48;6.40;;;5.90;;
2406;SDS011;37709;53.480;9.688;2022-10-17T04:37:17;7.53;;;5.70;;
2406;SDS011;37709;53.480;9.688;2022-10-17T04:39:46;6.20;;;5.70;;
2406;SDS011;37709;53.480;9.688;2022-10-17T04:42:13;5.93;;;5.33;;
2406;SDS011;37709;53.480;9.688;2022-10-17T04:44:41;6.70;;;5.93;;
2406;SDS011;37709;53.480;9.688;2022-10-17T04:47:09;6.83;;;6.23;;
2406;SDS011;37709;53.480;9.688;2022-10-17T04:49:38;5.57;;;5.13;;
2406;SDS011;37709;53.480;9.688;2022-10-17T04:52:10;9.63;;;6.77;;
2406;SDS011;37709;53.480;9.688;2022-10-17T04:54:47;6.90;;;6.20;;
2406;SDS011;37709;53.480;9.688;2022-10-17T04:57:16;6.73;;;6.13;;
2406;SDS011;37709;53.480;9.688;2022-10-17T04:59:54;7.90;;;6.53;;
2406;SDS011;37709;53.480;9.688;2022-10-17T05:02:27;6.90;;;6.20;;
2406;SDS011;37709;53.480;9.688;2022-10-17T05:04:56;6.50;;;5.83;;
2406;SDS011;37709;53.480;9.688;2022-10-17T05:07:23;6.03;;;5.53;;
2406;SDS011;37709;53.480;9.688;2022-10-17T05:10:01;6.90;;;6.30;;
2406;SDS011;37709;53.480;9.688;2022-10-17T05:12:29;7.43;;;6.70;;
2406;SDS011;37709;53.480;9.688;2022-10-17T05:14:57;10.07;;;6.90;;
2406;SDS011;37709;53.480;9.688;2022-10-17T05:17:27;7.40;;;6.73;;
2406;SDS011;37709;53.480;9.688;2022-10-17T05:19:54;9.70;;;7.17;;
2406;SDS011;37709;53.480;9.688;2022-10-17T05:22:22;7.67;;;6.90;;
2406;SDS011;37709;53.480;9.688;2022-10-17T05:24:50;8.87;;;7.47;;
2406;SDS011;37709;53.480;9.688;2022-10-17T05:27:18;9.20;;;7.27;;
2406;SDS011;37709;53.480;9.688;2022-10-17T05:29:45;10.60;;;8.07;;
2406;SDS011;37709;53.480;9.688;2022-10-17T05:32:20;7.13;;;6.50;;
2406;SDS011;37709;53.480;9.688;2022-10-17T05:34:47;10.87;;;7.40;;
2406;SDS011;37709;53.480;9.688;2022-10-17T05:37:15;7.87;;;7.17;;
2406;SDS011;37709;53.480;9.688;2022-10-17T05:39:48;11.23;;;7.70;;
2406;SDS011;37709;53.480;9.688;2022-10-17T05:42:18;10.00;;;7.80;;
2406;SDS011;37709;53.480;9.688;2022-10-17T05:44:46;9.23;;;7.63;;
2406;SDS011;37709;53.480;9.688;2022-10-17T05:47:16;8.67;;;7.50;;
2406;SDS011;37709;53.480;9.688;2022-10-17T05:49:43;9.60;;;6.70;;
2406;SDS011;37709;53.480;9.688;2022-10-17T05:52:21;12.40;;;8.20;;
2406;SDS011;37709;53.480;9.688;2022-10-17T05:55:05;9.77;;;8.20;;
2406;SDS011;37709;53.480;9.688;2022-10-17T05:57:37;8.17;;;7.40;;
2406;SDS011;37709;53.480;9.688;2022-10-17T06:00:08;8.20;;;7.40;;
2406;SDS011;37709;53.480;9.688;2022-10-17T06:02:42;10.85;;;8.68;;
2406;SDS011;37709;53.480;9.688;2022-10-17T06:05:47;8.33;;;7.47;;
2406;SDS011;37709;53.480;9.688;2022-10-17T06:08:15;10.07;;;7.40;;
2406;SDS011;37709;53.480;9.688;2022-10-17T06:10:46;8.70;;;7.33;;
2406;SDS011;37709;53.480;9.688;2022-10-17T06:13:17;7.67;;;7.00;;
2406;SDS011;37709;53.480;9.688;2022-10-17T06:15:48;8.00;;;7.20;;
2406;SDS011;37709;53.480;9.688;2022-10-17T06:18:17;9.53;;;7.53;;
2406;SDS011;37709;53.480;9.688;2022-10-17T06:20:45;8.60;;;7.90;;
2406;SDS011;37709;53.480;9.688;2022-10-17T06:23:15;9.63;;;7.80;;
2406;SDS011;37709;53.480;9.688;2022-10-17T06:26:01;8.73;;;7.83;;
2406;SDS011;37709;53.480;9.688;2022-10-17T06:28:30;13.23;;;7.97;;
2406;SDS011;37709;53.480;9.688;2022-10-17T06:30:58;8.80;;;7.20;;
2406;SDS011;37709;53.480;9.688;2022-10-17T06:33:29;7.95;;;7.15;;
2406;SDS011;37709;53.480;9.688;2022-10-17T06:35:57;8.03;;;7.33;;
2406;SDS011;37709;53.480;9.688;2022-10-17T06:38:25;9.77;;;8.85;;
2406;SDS011;37709;53.480;9.688;2022-10-17T06:41:16;7.40;;;6.30;;
2406;SDS011;37709;53.480;9.688;2022-10-17T06:43:45;7.72;;;7.00;;
2406;SDS011;37709;53.480;9.688;2022-10-17T06:46:37;6.50;;;5.90;;
2406;SDS011;37709;53.480;9.688;2022-10-17T06:49:08;6.13;;;5.40;;
2406;SDS011;37709;53.480;9.688;2022-10-17T06:51:46;6.03;;;5.43;;
2406;SDS011;37709;53.480;9.688;2022-10-17T06:54:16;7.33;;;4.93;;
2406;SDS011;37709;53.480;9.688;2022-10-17T06:56:57;5.07;;;4.57;;
2406;SDS011;37709;53.480;9.688;2022-10-17T06:59:44;6.40;;;4.40;;
2406;SDS011;37709;53.480;9.688;2022-10-17T07:02:18;4.53;;;4.10;;
2406;SDS011;37709;53.480;9.688;2022-10-17T07:04:46;5.10;;;4.05;;
2406;SDS011;37709;53.480;9.688;2022-10-17T07:07:13;5.40;;;3.60;;
2406;SDS011;37709;53.480;9.688;2022-10-17T07:09:41;3.87;;;3.50;;
2406;SDS011;37709;53.480;9.688;2022-10-17T07:12:09;2.93;;;2.73;;
2406;SDS011;37709;53.480;9.688;2022-10-17T07:14:43;4.40;;;3.20;;
2406;SDS011;37709;53.480;9.688;2022-10-17T07:17:13;4.90;;;3.13;;
2406;SDS011;37709;53.480;9.688;2022-10-17T07:19:41;4.00;;;2.67;;
2406;SDS011;37709;53.480;9.688;2022-10-17T07:22:10;3.27;;;2.63;;
2406;SDS011;37709;53.480;9.688;2022-10-17T07:24:42;2.83;;;2.63;;
2406;SDS011;37709;53.480;9.688;2022-10-17T07:27:25;2.60;;;2.40;;
2406;SDS011;37709;53.480;9.688;2022-10-17T07:29:53;3.30;;;3.00;;
2406;SDS011;37709;53.480;9.688;2022-10-17T07:32:38;2.70;;;2.50;;
2406;SDS011;37709;53.480;9.688;2022-10-17T07:35:09;3.17;;;2.47;;
2406;SDS011;37709;53.480;9.688;2022-10-17T07:37:39;3.40;;;2.80;;
2406;SDS011;37709;53.480;9.688;2022-10-17T07:40:07;3.07;;;2.87;;
2406;SDS011;37709;53.480;9.688;2022-10-17T07:42:36;2.73;;;2.47;;
2406;SDS011;37709;53.480;9.688;2022-10-17T07:45:05;2.77;;;2.30;;
2406;SDS011;37709;53.480;9.688;2022-10-17T07:47:33;5.37;;;2.27;;
2406;SDS011;37709;53.480;9.688;2022-10-17T07:50:06;4.07;;;2.53;;
2406;SDS011;37709;53.480;9.688;2022-10-17T07:52:35;2.70;;;2.50;;
2406;SDS011;37709;53.480;9.688;2022-10-17T07:55:03;2.50;;;2.17;;
2406;SDS011;37709;53.480;9.688;2022-10-17T07:57:30;2.70;;;2.13;;
2406;SDS011;37709;53.480;9.688;2022-10-17T07:59:58;2.43;;;2.23;;
2406;SDS011;37709;53.480;9.688;2022-10-17T08:02:26;2.40;;;2.10;;
2406;SDS011;37709;53.480;9.688;2022-10-17T08:04:54;2.33;;;2.00;;
2406;SDS011;37709;53.480;9.688;2022-10-17T08:07:22;3.40;;;1.83;;
2406;SDS011;37709;53.480;9.688;2022-10-17T08:09:55;4.30;;;2.50;;
2406;SDS011;37709;53.480;9.688;2022-10-17T08:12:23;1.70;;;1.60;;
2406;SDS011;37709;53.480;9.688;2022-10-17T08:14:52;2.23;;;2.03;;
2406;SDS011;37709;53.480;9.688;2022-10-17T08:17:19;2.20;;;2.00;;
2406;SDS011;37709;53.480;9.688;2022-10-17T08:19:47;2.30;;;2.10;;
2406;SDS011;37709;53.480;9.688;2022-10-17T08:22:15;3.60;;;2.20;;
2406;SDS011;37709;53.480;9.688;2022-10-17T08:24:42;4.13;;;2.20;;
2406;SDS011;37709;53.480;9.688;2022-10-17T08:27:11;3.57;;;2.40;;
2406;SDS011;37709;53.480;9.688;2022-10-17T08:29:39;3.23;;;2.00;;
2406;SDS011;37709;53.480;9.688;2022-10-17T08:32:07;3.10;;;2.40;;
2406;SDS011;37709;53.480;9.688;2022-10-17T08:34:36;4.57;;;2.30;;
2406;SDS011;37709;53.480;9.688;2022-10-17T08:37:04;2.40;;;2.20;;
2406;SDS011;37709;53.480;9.688;2022-10-17T08:39:31;2.47;;;1.90;;
2406;SDS011;37709;53.480;9.688;2022-10-17T08:44:48;3.53;;;2.17;;
2406;SDS011;37709;53.480;9.688;2022-10-17T08:47:27;4.60;;;2.40;;
2406;SDS011;37709;53.480;9.688;2022-10-17T08:50:02;2.27;;;2.17;;
2406;SDS011;37709;53.480;9.688;2022-10-17T08:55:13;3.40;;;2.30;;
2406;SDS011;37709;53.480;9.688;2022-10-17T08:57:48;2.57;;;2.37;;
2406;SDS011;37709;53.480;9.688;2022-10-17T09:00:17;2.10;;;1.90;;
2406;SDS011;37709;53.480;9.688;2022-10-17T09:08:27;12.20;;;2.40;;
2406;SDS011;37709;53.480;9.688;2022-10-17T09:17:10;3.08;;;2.60;;
2406;SDS011;37709;53.480;9.688;2022-10-17T09:22:38;5.30;;;2.70;;
2406;SDS011;37709;53.480;9.688;2022-10-17T09:25:11;3.80;;;2.87;;
2406;SDS011;37709;53.480;9.688;2022-10-17T09:28:01;5.23;;;2.33;;
2406;SDS011;37709;53.480;9.688;2022-10-17T09:33:16;3.95;;;2.70;;
2406;SDS011;37709;53.480;9.688;2022-10-17T09:36:12;3.80;;;2.50;;
2406;SDS011;37709;53.480;9.688;2022-10-17T09:38:59;5.10;;;2.78;;
2406;SDS011;37709;53.480;9.688;2022-10-17T09:44:13;2.87;;;2.00;;
2406;SDS011;37709;53.480;9.688;2022-10-17T09:49:31;2.60;;;2.40;;
2406;SDS011;37709;53.480;9.688;2022-10-17T09:52:02;2.53;;;2.20;;
2406;SDS011;37709;53.480;9.688;2022-10-17T09:57:14;4.80;;;2.23;;
2406;SDS011;37709;53.480;9.688;2022-10-17T09:59:44;3.50;;;2.07;;
2406;SDS011;37709;53.480;9.688;2022-10-17T10:02:15;3.90;;;2.50;;
2406;SDS011;37709;53.480;9.688;2022-10-17T10:08:05;3.40;;;2.63;;
2406;SDS011;37709;53.480;9.688;2022-10-17T10:10:43;3.00;;;2.70;;
2406;SDS011;37709;53.480;9.688;2022-10-17T10:15:40;4.30;;;2.27;;
2406;SDS011;37709;53.480;9.688;2022-10-17T10:23:32;2.80;;;2.30;;
2406;SDS011;37709;53.480;9.688;2022-10-17T10:26:01;2.90;;;2.53;;
2406;SDS011;37709;53.480;9.688;2022-10-17T10:28:31;4.80;;;2.73;;
2406;SDS011;37709;53.480;9.688;2022-10-17T10:31:07;3.85;;;2.75;;
2406;SDS011;37709;53.480;9.688;2022-10-17T10:33:39;4.23;;;2.93;;
2406;SDS011;37709;53.480;9.688;2022-10-17T10:36:15;2.90;;;2.43;;
2406;SDS011;37709;53.480;9.688;2022-10-17T10:38:49;3.63;;;2.80;;
2406;SDS011;37709;53.480;9.688;2022-10-17T10:41:20;2.47;;;2.10;;
2406;SDS011;37709;53.480;9.688;2022-10-17T10:43:48;2.50;;;2.23;;
2406;SDS011;37709;53.480;9.688;2022-10-17T10:46:19;4.00;;;2.47;;
2406;SDS011;37709;53.480;9.688;2022-10-17T10:48:58;5.87;;;2.60;;
2406;SDS011;37709;53.480;9.688;2022-10-17T10:51:41;3.00;;;2.70;;
2406;SDS011;37709;53.480;9.688;2022-10-17T10:54:16;5.00;;;2.27;;
2406;SDS011;37709;53.480;9.688;2022-10-17T10:56:49;3.57;;;2.70;;
2406;SDS011;37709;53.480;9.688;2022-10-17T10:59:30;3.50;;;2.23;;
2406;SDS011;37709;53.480;9.688;2022-10-17T11:02:12;3.70;;;2.60;;
2406;SDS011;37709;53.480;9.688;2022-10-17T11:05:02;6.60;;;2.70;;
2406;SDS011;37709;53.480;9.688;2022-10-17T11:10:34;4.23;;;2.90;;
2406;SDS011;37709;53.480;9.688;2022-10-17T11:18:57;3.87;;;2.80;;
2406;SDS011;37709;53.480;9.688;2022-10-17T11:27:05;3.50;;;2.23;;
2406;SDS011;37709;53.480;9.688;2022-10-17T11:29:34;3.53;;;2.50;;
2406;SDS011;37709;53.480;9.688;2022-10-17T11:32:10;2.87;;;2.60;;
2406;SDS011;37709;53.480;9.688;2022-10-17T11:34:45;4.80;;;2.77;;
2406;SDS011;37709;53.480;9.688;2022-10-17T11:37:21;3.93;;;2.50;;
2406;SDS011;37709;53.480;9.688;2022-10-17T11:39:57;3.20;;;2.27;;
2406;SDS011;37709;53.480;9.688;2022-10-17T11:44:59;3.97;;;2.57;;
2406;SDS011;37709;53.480;9.688;2022-10-17T11:47:43;3.00;;;2.27;;
2406;SDS011;37709;53.480;9.688;2022-10-17T11:50:23;4.80;;;2.70;;
2406;SDS011;37709;53.480;9.688;2022-10-17T11:53:16;4.80;;;2.87;;
2406;SDS011;37709;53.480;9.688;2022-10-17T11:55:46;3.27;;;2.87;;
2406;SDS011;37709;53.480;9.688;2022-10-17T12:01:21;5.70;;;3.87;;
2406;SDS011;37709;53.480;9.688;2022-10-17T12:09:48;6.10;;;5.00;;
2406;SDS011;37709;53.480;9.688;2022-10-17T12:12:28;7.77;;;5.90;;
2406;SDS011;37709;53.480;9.688;2022-10-17T12:17:53;9.27;;;6.80;;
2406;SDS011;37709;53.480;9.688;2022-10-17T12:20:35;10.77;;;7.73;;
2406;SDS011;37709;53.480;9.688;2022-10-17T12:23:16;7.50;;;6.03;;
2406;SDS011;37709;53.480;9.688;2022-10-17T12:25:52;13.10;;;8.10;;
2406;SDS011;37709;53.480;9.688;2022-10-17T12:28:42;8.50;;;7.70;;
2406;SDS011;37709;53.480;9.688;2022-10-17T12:38:49;10.47;;;7.43;;
2406;SDS011;37709;53.480;9.688;2022-10-17T12:49:44;8.93;;;7.33;;
2406;SDS011;37709;53.480;9.688;2022-10-17T13:00:16;9.47;;;8.00;;
2406;SDS011;37709;53.480;9.688;2022-10-17T13:02:51;145.77;;;21.03;;
2406;SDS011;37709;53.480;9.688;2022-10-17T13:05:28;55.87;;;18.23;;
2406;SDS011;37709;53.480;9.688;2022-10-17T13:08:02;22.20;;;11.23;;
2406;SDS011;37709;53.480;9.688;2022-10-17T13:10:35;26.33;;;14.80;;
2406;SDS011;37709;53.480;9.688;2022-10-17T13:13:14;32.33;;;15.93;;
2406;SDS011;37709;53.480;9.688;2022-10-17T13:15:46;15.40;;;10.83;;
2406;SDS011;37709;53.480;9.688;2022-10-17T13:18:20;17.20;;;11.83;;
2406;SDS011;37709;53.480;9.688;2022-10-17T13:20:54;22.97;;;14.17;;
2406;SDS011;37709;53.480;9.688;2022-10-17T13:23:31;27.57;;;14.60;;
2406;SDS011;37709;53.480;9.688;2022-10-17T13:28:41;26.97;;;16.40;;
2406;SDS011;37709;53.480;9.688;2022-10-17T13:34:17;26.35;;;18.15;;
2406;SDS011;37709;53.480;9.688;2022-10-17T13:36:47;20.33;;;15.00;;
2406;SDS011;37709;53.480;9.688;2022-10-17T13:39:23;14.97;;;13.03;;
2406;SDS011;37709;53.480;9.688;2022-10-17T13:42:29;20.30;;;15.80;;
2406;SDS011;37709;53.480;9.688;2022-10-17T13:45:04;21.07;;;14.27;;
2406;SDS011;37709;53.480;9.688;2022-10-17T13:47:43;18.17;;;14.17;;
2406;SDS011;37709;53.480;9.688;2022-10-17T13:50:30;32.93;;;17.30;;
2406;SDS011;37709;53.480;9.688;2022-10-17T13:56:22;33.90;;;18.90;;
2406;SDS011;37709;53.480;9.688;2022-10-17T13:58:56;30.20;;;18.30;;
2406;SDS011;37709;53.480;9.688;2022-10-17T14:01:27;24.67;;;16.73;;
2406;SDS011;37709;53.480;9.688;2022-10-17T14:03:55;32.17;;;18.63;;
2406;SDS011;37709;53.480;9.688;2022-10-17T14:06:42;29.70;;;17.90;;
2406;SDS011;37709;53.480;9.688;2022-10-17T14:09:20;29.13;;;17.73;;
2406;SDS011;37709;53.480;9.688;2022-10-17T14:11:59;28.10;;;17.73;;
2406;SDS011;37709;53.480;9.688;2022-10-17T14:14:30;40.03;;;21.90;;
2406;SDS011;37709;53.480;9.688;2022-10-17T14:17:21;21.53;;;16.60;;
2406;SDS011;37709;53.480;9.688;2022-10-17T14:19:54;27.97;;;17.50;;
2406;SDS011;37709;53.480;9.688;2022-10-17T14:22:43;27.77;;;16.83;;
2406;SDS011;37709;53.480;9.688;2022-10-17T14:30:39;40.00;;;22.20;;
2406;SDS011;37709;53.480;9.688;2022-10-17T14:33:30;25.43;;;17.27;;
2406;SDS011;37709;53.480;9.688;2022-10-17T14:36:02;24.93;;;18.17;;
2406;SDS011;37709;53.480;9.688;2022-10-17T14:38:31;26.10;;;18.50;;
2406;SDS011;37709;53.480;9.688;2022-10-17T14:40:59;38.13;;;22.40;;
2406;SDS011;37709;53.480;9.688;2022-10-17T14:44:01;27.60;;;19.10;;
2406;SDS011;37709;53.480;9.688;2022-10-17T14:46:33;31.47;;;20.70;;
2406;SDS011;37709;53.480;9.688;2022-10-17T14:49:05;26.57;;;19.03;;
2406;SDS011;37709;53.480;9.688;2022-10-17T14:51:39;33.30;;;21.80;;
2406;SDS011;37709;53.480;9.688;2022-10-17T14:54:27;40.37;;;24.13;;
2406;SDS011;37709;53.480;9.688;2022-10-17T14:56:56;38.43;;;22.07;;
2406;SDS011;37709;53.480;9.688;2022-10-17T14:59:24;32.20;;;20.70;;
2406;SDS011;37709;53.480;9.688;2022-10-17T15:02:12;33.77;;;22.93;;
2406;SDS011;37709;53.480;9.688;2022-10-17T15:04:40;44.83;;;23.37;;
2406;SDS011;37709;53.480;9.688;2022-10-17T15:07:14;32.73;;;20.97;;
2406;SDS011;37709;53.480;9.688;2022-10-17T15:09:43;31.90;;;20.90;;
2406;SDS011;37709;53.480;9.688;2022-10-17T15:12:14;52.17;;;25.47;;
2406;SDS011;37709;53.480;9.688;2022-10-17T15:14:46;34.00;;;22.20;;
2406;SDS011;37709;53.480;9.688;2022-10-17T15:17:16;27.60;;;19.60;;
2406;SDS011;37709;53.480;9.688;2022-10-17T15:19:51;30.83;;;20.13;;
2406;SDS011;37709;53.480;9.688;2022-10-17T15:22:18;20.40;;;16.97;;
2406;SDS011;37709;53.480;9.688;2022-10-17T15:24:46;23.10;;;15.83;;
2406;SDS011;37709;53.480;9.688;2022-10-17T15:27:20;31.23;;;20.43;;
2406;SDS011;37709;53.480;9.688;2022-10-17T15:29:49;16.97;;;13.17;;
2406;SDS011;37709;53.480;9.688;2022-10-17T15:32:17;28.40;;;19.57;;
2406;SDS011;37709;53.480;9.688;2022-10-17T15:34:45;24.70;;;16.93;;
2406;SDS011;37709;53.480;9.688;2022-10-17T15:37:14;32.40;;;20.70;;
2406;SDS011;37709;53.480;9.688;2022-10-17T15:39:44;24.43;;;15.77;;
2406;SDS011;37709;53.480;9.688;2022-10-17T15:42:19;32.20;;;21.47;;
2406;SDS011;37709;53.480;9.688;2022-10-17T15:44:48;40.10;;;23.40;;
2406;SDS011;37709;53.480;9.688;2022-10-17T15:47:18;36.40;;;22.37;;
2406;SDS011;37709;53.480;9.688;2022-10-17T15:49:52;35.20;;;21.07;;
2406;SDS011;37709;53.480;9.688;2022-10-17T15:52:21;24.87;;;18.73;;
2406;SDS011;37709;53.480;9.688;2022-10-17T15:54:49;28.27;;;19.83;;
2406;SDS011;37709;53.480;9.688;2022-10-17T15:57:20;31.57;;;19.13;;
2406;SDS011;37709;53.480;9.688;2022-10-17T15:59:50;27.23;;;19.10;;
2406;SDS011;37709;53.480;9.688;2022-10-17T16:02:20;27.60;;;19.37;;
2406;SDS011;37709;53.480;9.688;2022-10-17T16:04:49;28.47;;;20.43;;
2406;SDS011;37709;53.480;9.688;2022-10-17T16:07:17;27.40;;;18.93;;
2406;SDS011;37709;53.480;9.688;2022-10-17T16:09:45;30.50;;;20.97;;
2406;SDS011;37709;53.480;9.688;2022-10-17T16:12:15;28.40;;;21.03;;
2406;SDS011;37709;53.480;9.688;2022-10-17T16:14:53;40.40;;;23.13;;
2406;SDS011;37709;53.480;9.688;2022-10-17T16:17:20;45.17;;;24.93;;
2406;SDS011;37709;53.480;9.688;2022-10-17T16:19:48;60.60;;;27.13;;
2406;SDS011;37709;53.480;9.688;2022-10-17T16:22:18;31.67;;;21.47;;
2406;SDS011;37709;53.480;9.688;2022-10-17T16:24:50;34.20;;;21.60;;
2406;SDS011;37709;53.480;9.688;2022-10-17T16:27:24;25.27;;;19.20;;
2406;SDS011;37709;53.480;9.688;2022-10-17T16:29:52;39.43;;;22.83;;
2406;SDS011;37709;53.480;9.688;2022-10-17T16:32:20;35.43;;;21.70;;
2406;SDS011;37709;53.480;9.688;2022-10-17T16:34:47;28.87;;;20.47;;
2406;SDS011;37709;53.480;9.688;2022-10-17T16:37:15;38.87;;;21.73;;
2406;SDS011;37709;53.480;9.688;2022-10-17T16:39:43;39.97;;;23.30;;
2406;SDS011;37709;53.480;9.688;2022-10-17T16:42:14;32.27;;;21.60;;
2406;SDS011;37709;53.480;9.688;2022-10-17T16:44:43;35.93;;;22.00;;
2406;SDS011;37709;53.480;9.688;2022-10-17T16:47:10;33.10;;;21.50;;
2406;SDS011;37709;53.480;9.688;2022-10-17T16:49:39;48.70;;;25.53;;
2406;SDS011;37709;53.480;9.688;2022-10-17T16:52:11;41.67;;;24.20;;
2406;SDS011;37709;53.480;9.688;2022-10-17T16:54:39;51.37;;;27.90;;
2406;SDS011;37709;53.480;9.688;2022-10-17T16:57:07;35.23;;;24.13;;
2406;SDS011;37709;53.480;9.688;2022-10-17T16:59:35;78.30;;;34.17;;
2406;SDS011;37709;53.480;9.688;2022-10-17T17:02:03;36.23;;;24.47;;
2406;SDS011;37709;53.480;9.688;2022-10-17T17:04:30;52.80;;;27.40;;
2406;SDS011;37709;53.480;9.688;2022-10-17T17:06:58;53.70;;;29.43;;
2406;SDS011;37709;53.480;9.688;2022-10-17T17:09:26;39.03;;;24.40;;
2406;SDS011;37709;53.480;9.688;2022-10-17T17:11:53;33.90;;;23.13;;
2406;SDS011;37709;53.480;9.688;2022-10-17T17:14:21;42.97;;;27.60;;
2406;SDS011;37709;53.480;9.688;2022-10-17T17:16:48;42.70;;;26.60;;
2406;SDS011;37709;53.480;9.688;2022-10-17T17:19:16;38.63;;;26.50;;
2406;SDS011;37709;53.480;9.688;2022-10-17T17:21:43;45.23;;;29.00;;
2406;SDS011;37709;53.480;9.688;2022-10-17T17:24:16;45.73;;;27.90;;
2406;SDS011;37709;53.480;9.688;2022-10-17T17:26:53;41.20;;;25.60;;
2406;SDS011;37709;53.480;9.688;2022-10-17T17:29:23;44.43;;;25.63;;
2406;SDS011;37709;53.480;9.688;2022-10-17T17:31:52;36.47;;;24.30;;
2406;SDS011;37709;53.480;9.688;2022-10-17T17:34:19;58.50;;;29.07;;
2406;SDS011;37709;53.480;9.688;2022-10-17T17:36:47;31.93;;;22.77;;